Time;durP1;ratioP1;P1;durP2;ratioP2;P2;SDS_P1;SDS_P2;PMS_P1;PMS_P2;Temp;Humidity;BMP_temperature;BMP_pressure;BME280_temperature;BME280_humidity;BME280_pressure;Samples;Min_cycle;Max_cycle;Signal;HPM_P1;HPM_P2
2022/10/12 00:00:39;;;;;;;8.52;6.05;;;;;;;14.05;73.31;100061.41;4908706;29;20562;-93
2022/10/12 00:03:04;;;;;;;8.27;5.95;;;;;;;13.99;73.30;100058.97;4924455;29;20417;-92
2022/10/12 00:05:30;;;;;;;9.18;6.18;;;;;;;13.83;73.86;100034.63;4908581;29;20027;-92
2022/10/12 00:07:55;;;;;;;9.98;6.03;;;;;;;13.81;73.59;100028.66;4924298;29;20058;-92
2022/10/12 00:10:21;;;;;;;9.50;5.97;;;;;;;13.90;74.09;100053.28;4924283;29;20071;-93
2022/10/12 00:12:46;;;;;;;10.77;6.13;;;;;;;13.89;74.18;100049.78;4923762;29;20034;-92
2022/10/12 00:15:11;;;;;;;10.73;6.38;;;;;;;13.92;74.10;100046.53;4925161;29;20030;-92
2022/10/12 00:17:37;;;;;;;11.05;6.93;;;;;;;13.88;73.66;100031.94;4924408;29;20494;-92
2022/10/12 00:20:03;;;;;;;10.00;6.07;;;;;;;13.90;73.54;100040.59;4923864;29;20090;-92
2022/10/12 00:22:29;;;;;;;10.52;6.60;;;;;;;13.90;73.26;100027.03;4924768;29;20085;-93
2022/10/12 00:24:54;;;;;;;11.07;6.90;;;;;;;13.97;73.63;100044.91;4923659;29;20019;-93
2022/10/12 00:27:20;;;;;;;10.95;6.82;;;;;;;13.81;73.76;100025.16;4923932;29;20050;-93
2022/10/12 00:29:46;;;;;;;10.88;6.28;;;;;;;13.81;74.20;100022.47;4923663;29;20031;-92
2022/10/12 00:32:11;;;;;;;8.45;6.35;;;;;;;13.81;73.82;100023.25;4924293;29;20046;-91
2022/10/12 00:34:37;;;;;;;9.95;7.25;;;;;;;13.82;73.88;100019.47;4908106;29;20513;-92
2022/10/12 00:37:02;;;;;;;11.85;6.00;;;;;;;13.82;74.27;100021.34;4908038;29;20074;-93
2022/10/12 00:39:27;;;;;;;11.85;6.40;;;;;;;13.89;74.34;100038.13;4923547;29;20023;-92
2022/10/12 00:41:53;;;;;;;10.50;6.57;;;;;;;13.73;74.84;100023.81;4923619;29;20510;-92
2022/10/12 00:44:40;;;;;;;9.93;6.10;;;;;;;13.86;75.12;100042.22;4908155;29;20027;-92
2022/10/12 00:47:10;;;;;;;10.82;6.10;;;;;;;13.73;75.06;100031.94;4939591;29;20038;-92
2022/10/12 00:49:35;;;;;;;8.85;6.40;;;;;;;13.80;74.66;100024.34;4923971;29;20067;-92
2022/10/12 00:52:04;;;;;;;9.40;6.30;;;;;;;13.72;74.13;100019.50;4907464;29;20031;-92
2022/10/12 00:54:32;;;;;;;8.75;6.45;;;;;;;13.74;73.96;100017.34;4923888;29;20039;-92
2022/10/12 00:56:57;;;;;;;10.15;6.53;;;;;;;13.67;74.05;100014.88;4923795;29;20482;-92
2022/10/12 00:59:31;;;;;;;11.02;5.82;;;;;;;13.76;73.33;100017.88;4923541;29;20034;-93
2022/10/12 01:01:56;;;;;;;11.25;6.38;;;;;;;13.86;73.25;100031.38;4923609;29;20027;-92
2022/10/12 01:04:22;;;;;;;10.10;5.93;;;;;;;13.87;73.12;100024.88;4924315;29;20023;-93
2022/10/12 01:06:48;;;;;;;10.52;6.22;;;;;;;13.70;74.50;100017.06;4923536;29;20434;-93
2022/10/12 01:09:13;;;;;;;11.38;6.43;;;;;;;13.74;74.90;100034.38;4907714;29;20055;-92
2022/10/12 01:11:39;;;;;;;10.38;6.50;;;;;;;13.64;74.89;100020.84;4923596;29;20074;-92
2022/10/12 01:14:04;;;;;;;9.52;6.22;;;;;;;13.65;74.28;100030.59;4923325;29;20027;-93
2022/10/12 01:16:35;;;;;;;12.30;6.20;;;;;;;13.67;74.97;100043.84;4907228;29;20034;-93
2022/10/12 01:19:27;;;;;;;9.45;6.68;;;;;;;13.69;74.91;100045.19;4923124;29;20035;-91
2022/10/12 01:22:01;;;;;;;10.80;6.93;;;;;;;13.53;75.42;100032.78;4938748;29;20458;-92
2022/10/12 01:24:53;;;;;;;7.80;5.70;;;;;;;13.58;75.24;100049.00;4923799;29;20402;-92
2022/10/12 01:27:30;;;;;;;9.68;6.03;;;;;;;13.64;74.93;100049.81;4939656;29;20533;-92
2022/10/12 01:29:59;;;;;;;8.00;5.28;;;;;;;13.62;75.34;100041.16;4923259;29;20031;-92
2022/10/12 01:32:50;;;;;;;10.27;5.57;;;;;;;13.69;75.04;100041.69;4938533;29;20086;-92
2022/10/12 01:35:21;;;;;;;9.15;6.03;;;;;;;13.67;75.23;100043.84;4934586;28;20489;-92
2022/10/12 01:37:59;;;;;;;8.83;5.57;;;;;;;13.64;75.55;100041.69;4941774;28;20035;-92
2022/10/12 01:40:53;;;;;;;8.52;6.10;;;;;;;13.62;75.72;100050.09;4973600;28;20142;-91
2022/10/12 01:43:22;;;;;;;10.93;6.00;;;;;;;13.48;75.99;100035.47;4957626;28;20022;-92
2022/10/12 01:45:48;;;;;;;15.57;6.28;;;;;;;13.49;76.28;100035.22;4926981;28;20097;-92
2022/10/12 01:48:13;;;;;;;9.63;6.05;;;;;;;13.54;76.28;100050.63;4941845;28;20023;-91
2022/10/12 01:50:50;;;;;;;8.52;6.13;;;;;;;13.49;76.17;100037.13;4925237;28;20030;-92
2022/10/12 01:53:35;;;;;;;8.20;6.13;;;;;;;13.54;75.90;100047.91;4926460;28;20026;-92
2022/10/12 01:56:25;;;;;;;11.73;6.60;;;;;;;13.58;75.77;100046.28;4926894;28;20038;-92
2022/10/12 01:59:08;;;;;;;13.10;6.25;;;;;;;13.46;76.25;100043.06;4957355;28;20057;-92
2022/10/12 02:01:50;;;;;;;10.25;5.75;;;;;;;13.45;76.08;100050.38;4943158;28;20037;-93
2022/10/12 02:04:33;;;;;;;8.50;5.80;;;;;;;13.33;76.50;100061.44;4942444;28;20026;-92
2022/10/12 02:07:02;;;;;;;7.60;5.75;;;;;;;13.22;77.00;100067.91;4926039;28;20046;-92
2022/10/12 02:09:28;;;;;;;9.35;5.85;;;;;;;13.19;77.40;100064.91;4925696;28;20073;-92
2022/10/12 02:11:56;;;;;;;8.80;6.35;;;;;;;13.09;77.54;100063.00;4941471;28;20078;-92
2022/10/12 02:14:23;;;;;;;10.05;6.40;;;;;;;13.08;77.77;100067.59;4926355;28;20146;-93
2022/10/12 02:16:54;;;;;;;11.32;6.65;;;;;;;13.11;77.71;100072.50;4925856;28;20134;-92
2022/10/12 02:19:22;;;;;;;9.60;6.15;;;;;;;12.96;78.24;100058.94;4925909;28;20015;-93
2022/10/12 02:21:47;;;;;;;10.45;5.90;;;;;;;13.03;78.48;100069.47;4925425;28;20489;-92
2022/10/12 02:24:13;;;;;;;10.88;6.63;;;;;;;12.94;78.33;100061.09;4921725;29;20034;-92
2022/10/12 02:26:40;;;;;;;10.77;6.25;;;;;;;13.06;78.12;100079.78;4922246;29;20027;-93
2022/10/12 02:29:09;;;;;;;11.52;6.38;;;;;;;13.03;77.71;100067.63;4907085;29;20027;-93
2022/10/12 02:31:47;;;;;;;8.73;6.43;;;;;;;13.03;77.68;100066.78;4906370;29;20031;-92
2022/10/12 02:34:18;;;;;;;12.02;6.20;;;;;;;13.05;77.93;100072.72;4923187;29;20043;-93
2022/10/12 02:36:45;;;;;;;9.93;6.38;;;;;;;13.21;77.92;100092.50;4922137;29;20042;-92
2022/10/12 02:39:16;;;;;;;11.35;6.60;;;;;;;13.15;78.17;100083.56;4937287;29;20106;-92
2022/10/12 02:41:53;;;;;;;8.13;6.35;;;;;;;13.10;78.32;100078.16;4921973;29;20023;-92
2022/10/12 02:44:21;;;;;;;8.95;6.38;;;;;;;13.09;78.19;100077.34;4922181;29;20023;-92
2022/10/12 02:46:47;;;;;;;12.60;7.03;;;;;;;13.10;78.11;100075.47;4907031;29;20031;-92
2022/10/12 02:49:13;;;;;;;12.18;6.50;;;;;;;13.13;77.65;100077.59;4910149;29;20038;-92
2022/10/12 02:51:38;;;;;;;13.07;6.88;;;;;;;13.10;78.24;100075.47;4910150;29;20038;-92
2022/10/12 02:54:03;;;;;;;9.35;7.05;;;;;;;13.18;77.75;100090.31;4910219;29;20031;-92
2022/10/12 02:56:29;;;;;;;15.35;7.32;;;;;;;13.10;77.98;100073.56;4925334;29;20019;-92
2022/10/12 02:58:54;;;;;;;10.27;6.68;;;;;;;13.11;78.39;100085.19;4909809;29;20034;-92
2022/10/12 03:01:20;;;;;;;12.00;6.55;;;;;;;13.16;78.11;100090.63;4925559;29;20039;-92
2022/10/12 03:03:45;;;;;;;13.20;7.38;;;;;;;13.01;78.39;100061.66;4925689;29;20031;-91
2022/10/12 03:06:11;;;;;;;14.18;7.03;;;;;;;13.06;78.53;100080.56;4925153;29;20027;-92
2022/10/12 03:08:37;;;;;;;9.40;6.85;;;;;;;13.06;78.34;100066.25;4925216;29;20039;-92
2022/10/12 03:11:03;;;;;;;12.25;7.13;;;;;;;13.08;78.17;100070.31;4909621;29;20023;-92
2022/10/12 03:13:28;;;;;;;11.27;7.28;;;;;;;13.09;78.30;100085.47;4925083;29;20464;-92
2022/10/12 03:16:02;;;;;;;13.02;6.82;;;;;;;12.99;78.51;100061.13;4925875;29;20054;-92
2022/10/12 03:18:28;;;;;;;11.57;6.93;;;;;;;12.98;78.42;100061.38;4925700;29;20390;-92
2022/10/12 03:20:53;;;;;;;9.90;7.03;;;;;;;12.98;78.60;100064.88;4925588;29;20074;-92
2022/10/12 03:23:18;;;;;;;11.10;7.22;;;;;;;13.00;78.22;100078.94;4925451;29;20023;-93
2022/10/12 03:25:44;;;;;;;10.63;6.85;;;;;;;12.98;78.64;100078.41;4909053;29;20035;-92
2022/10/12 03:28:09;;;;;;;13.27;6.63;;;;;;;12.91;78.61;100061.63;4925464;29;20038;-92
2022/10/12 03:30:35;;;;;;;10.18;6.97;;;;;;;12.89;78.72;100071.91;4924978;29;20031;-94
2022/10/12 03:33:00;;;;;;;12.73;6.65;;;;;;;12.94;78.52;100080.00;4924613;29;20043;-93
2022/10/12 03:35:26;;;;;;;10.25;6.88;;;;;;;12.92;78.54;100082.97;4909322;29;20401;-93
2022/10/12 03:38:21;;;;;;;11.85;7.38;;;;;;;12.91;78.87;100069.75;4909259;29;20448;-92
2022/10/12 03:40:47;;;;;;;12.70;7.85;;;;;;;12.82;78.98;100058.63;4904198;29;20519;-92
2022/10/12 03:43:13;;;;;;;10.95;7.20;;;;;;;12.94;78.92;100078.09;4871231;29;20040;-93
2022/10/12 03:45:38;;;;;;;10.88;7.22;;;;;;;12.88;79.73;100068.38;4886683;29;20062;-92
2022/10/12 03:48:04;;;;;;;11.10;7.35;;;;;;;12.91;79.24;100077.84;4887251;29;20083;-94
2022/10/12 03:50:29;;;;;;;10.40;7.00;;;;;;;12.89;79.02;100056.50;4870747;29;20054;-94
2022/10/12 03:52:55;;;;;;;10.35;7.47;;;;;;;12.82;79.84;100068.63;4886355;29;20510;-93
2022/10/12 03:55:22;;;;;;;10.25;7.05;;;;;;;12.84;80.31;100083.50;4886033;29;20040;-93
2022/10/12 03:57:48;;;;;;;13.45;7.53;;;;;;;12.67;80.39;100069.38;4886966;29;20036;-93
2022/10/12 04:00:14;;;;;;;11.18;7.95;;;;;;;12.73;80.40;100079.16;4870363;29;20062;-93
2022/10/12 04:02:39;;;;;;;14.05;7.13;;;;;;;12.71;80.62;100074.00;4886890;29;20028;-94
2022/10/12 04:05:05;;;;;;;16.20;7.80;;;;;;;12.73;80.39;100082.66;4906015;29;20158;-94
2022/10/12 04:07:31;;;;;;;10.15;7.10;;;;;;;12.65;80.08;100064.25;4924269;29;20147;-94
2022/10/12 04:09:56;;;;;;;8.88;6.97;;;;;;;12.73;79.91;100071.84;4925093;29;20054;-96
2022/10/12 04:12:22;;;;;;;12.23;7.18;;;;;;;12.76;79.79;100077.78;4914545;29;20078;-96
2022/10/12 04:14:47;;;;;;;10.80;6.65;;;;;;;12.76;79.42;100075.09;4927540;29;20031;-95
2022/10/12 04:17:16;;;;;;;14.32;7.80;;;;;;;12.92;79.10;100082.97;4929811;29;20137;-96
2022/10/12 04:19:42;;;;;;;10.68;7.55;;;;;;;12.91;78.54;100067.84;4928538;29;20038;-96
2022/10/12 04:22:07;;;;;;;13.30;6.95;;;;;;;13.09;77.99;100085.47;4925388;29;20044;-93
2022/10/12 04:24:33;;;;;;;12.65;7.15;;;;;;;13.06;78.24;100091.41;4912163;29;20027;-96
2022/10/12 04:27:01;;;;;;;16.05;9.32;;;;;;;12.99;78.40;100088.16;4926759;29;20027;-96
2022/10/12 04:29:35;;;;;;;12.35;7.22;;;;;;;13.14;77.98;100088.16;4926049;29;20378;-96
2022/10/12 04:32:04;;;;;;;14.98;8.02;;;;;;;13.27;78.29;100123.88;4930013;29;20057;-95
2022/10/12 04:34:34;;;;;;;14.18;8.93;;;;;;;13.10;78.41;100099.78;4946312;28;20035;-96
2022/10/12 04:37:00;;;;;;;14.35;8.30;;;;;;;13.13;78.25;100102.75;4930788;28;20023;-96
2022/10/12 04:39:25;;;;;;;11.05;7.07;;;;;;;13.07;78.55;100100.31;4929019;28;20114;-94
2022/10/12 04:41:56;;;;;;;11.60;8.30;;;;;;;13.01;78.95;100094.09;4918313;29;20027;-94
2022/10/12 04:44:56;;;;;;;15.82;7.38;;;;;;;13.19;78.82;100119.81;4923703;29;20077;-95
2022/10/12 04:47:24;;;;;;;22.63;10.00;;;;;;;13.12;78.64;100111.16;4927660;29;20521;-94
2022/10/12 04:49:50;;;;;;;15.70;7.97;;;;;;;13.03;78.96;100100.06;4948172;28;20022;-95
2022/10/12 04:52:16;;;;;;;11.95;6.82;;;;;;;13.17;78.42;100124.66;4929646;28;20023;-94
2022/10/12 04:54:49;;;;;;;18.20;9.40;;;;;;;13.02;79.09;100113.84;4943229;29;20047;-95
2022/10/12 04:57:15;;;;;;;19.08;9.48;;;;;;;12.94;79.13;100115.94;4930248;28;20066;-92
2022/10/12 04:59:40;;;;;;;10.60;8.05;;;;;;;13.03;79.01;100121.69;4945294;29;20035;-94
2022/10/12 05:02:06;;;;;;;11.00;7.28;;;;;;;12.87;79.45;100107.28;4910995;29;20058;-93
2022/10/12 05:04:31;;;;;;;49.22;10.45;;;;;;;12.97;79.70;100135.41;4910244;29;20518;-94
2022/10/12 05:06:57;;;;;;;13.18;8.80;;;;;;;12.74;79.24;100105.91;4925148;29;20414;-93
2022/10/12 05:09:22;;;;;;;12.40;7.80;;;;;;;12.79;79.73;100120.50;4908283;28;20371;-93
2022/10/12 05:11:48;;;;;;;12.55;7.30;;;;;;;12.87;79.70;100126.22;4924123;29;20406;-93
2022/10/12 05:14:15;;;;;;;12.18;8.02;;;;;;;13.01;79.79;100139.22;4910040;29;20063;-93
2022/10/12 05:16:42;;;;;;;15.88;8.48;;;;;;;13.02;79.94;100138.16;4909091;29;20066;-95
2022/10/12 05:19:10;;;;;;;21.77;11.40;;;;;;;12.92;79.76;100123.50;4909085;29;20031;-91
2022/10/12 05:21:39;;;;;;;12.60;8.70;;;;;;;13.00;79.29;100126.81;4929838;29;20035;-95
2022/10/12 05:24:05;;;;;;;13.27;8.32;;;;;;;12.95;79.21;100122.19;4926847;29;20023;-94
2022/10/12 05:26:30;;;;;;;10.88;7.05;;;;;;;13.01;79.08;100134.66;4911481;29;20042;-94
2022/10/12 05:28:56;;;;;;;20.17;11.50;;;;;;;13.01;79.15;100120.28;4907612;29;20055;-95
2022/10/12 05:31:30;;;;;;;12.95;8.18;;;;;;;13.17;79.39;100159.81;4923616;29;20027;-95
2022/10/12 05:33:58;;;;;;;19.58;9.85;;;;;;;13.03;79.49;100126.25;4908745;29;20090;-94
2022/10/12 05:36:23;;;;;;;17.98;8.25;;;;;;;13.07;79.49;100139.00;4924694;29;20031;-95
2022/10/12 05:38:49;;;;;;;12.43;7.60;;;;;;;13.19;79.07;100151.44;4923177;29;20038;-92
2022/10/12 05:41:15;;;;;;;11.60;7.70;;;;;;;13.19;79.39;100154.16;4909087;29;20031;-94
2022/10/12 05:43:42;;;;;;;10.25;8.13;;;;;;;13.13;78.87;100142.50;4910984;29;20023;-93
2022/10/12 05:46:08;;;;;;;13.27;8.45;;;;;;;13.27;78.94;100149.03;4923741;29;20047;-91
2022/10/12 05:48:33;;;;;;;13.13;9.52;;;;;;;13.21;79.69;100136.56;4922382;29;20050;-93
2022/10/12 05:51:02;;;;;;;13.65;7.72;;;;;;;13.30;79.39;100151.25;4907054;29;20066;-94
2022/10/12 05:53:57;;;;;;;13.68;8.65;;;;;;;13.36;79.62;100152.06;4923760;29;20027;-91
2022/10/12 05:56:22;;;;;;;15.60;9.38;;;;;;;13.39;79.71;100164.25;4966018;28;20046;-93
2022/10/12 05:59:03;;;;;;;14.60;8.48;;;;;;;13.27;79.16;100149.03;4931291;28;20808;-94
2022/10/12 06:01:33;;;;;;;21.27;12.10;;;;;;;13.31;79.13;100157.47;4920403;28;20026;-92
2022/10/12 06:07:11;;;;;;;17.50;8.90;;;;;;;13.35;79.29;100174.78;4948827;29;20050;-94
2022/10/12 06:09:46;;;;;;;17.67;9.00;;;;;;;13.47;79.20;100188.06;4924086;29;20130;-95
2022/10/12 06:12:12;;;;;;;13.25;9.60;;;;;;;13.30;79.70;100174.75;4924684;29;20037;-93
2022/10/12 06:14:40;;;;;;;14.07;9.38;;;;;;;13.32;79.99;100183.41;4906719;29;20026;-94
2022/10/12 06:17:06;;;;;;;15.30;8.70;;;;;;;13.31;79.63;100184.50;4909743;29;20134;-95
2022/10/12 06:20:11;;;;;;;14.95;8.73;;;;;;;13.36;78.73;100173.69;4920238;29;20068;-96
2022/10/12 06:22:41;;;;;;;14.68;8.18;;;;;;;13.51;78.55;100189.16;4946682;29;20019;-93
2022/10/12 06:25:07;;;;;;;14.40;8.52;;;;;;;13.52;78.80;100186.16;4924282;29;20178;-93
2022/10/12 06:27:33;;;;;;;14.23;8.50;;;;;;;13.54;78.74;100199.44;4907417;29;20039;-95
2022/10/12 06:29:59;;;;;;;10.68;8.15;;;;;;;13.51;79.13;100195.38;4908814;29;20035;-96
2022/10/12 06:32:27;;;;;;;16.50;8.27;;;;;;;13.41;78.91;100183.72;4912443;28;20804;-94
2022/10/12 06:34:53;;;;;;;14.02;8.77;;;;;;;13.48;79.00;100189.69;4927610;28;20031;-96
2022/10/12 06:37:18;;;;;;;18.50;9.18;;;;;;;13.53;78.42;100193.22;4925630;28;20489;-93
2022/10/12 06:39:47;;;;;;;14.95;8.75;;;;;;;13.66;78.39;100212.72;4926906;28;20030;-94
2022/10/12 06:42:18;;;;;;;23.13;9.73;;;;;;;13.65;78.73;100221.91;4927883;28;20034;-93
2022/10/12 06:44:43;;;;;;;22.87;10.00;;;;;;;13.51;78.45;100194.56;4927775;28;20014;-93
2022/10/12 06:47:09;;;;;;;63.28;33.97;;;;;;;13.61;78.57;100196.47;4943114;28;20038;-94
2022/10/12 06:49:35;;;;;;;15.60;9.35;;;;;;;13.82;78.38;100214.38;4942576;28;20043;-93
2022/10/12 06:52:00;;;;;;;19.65;11.30;;;;;;;13.78;78.26;100224.13;4942398;28;20575;-93
2022/10/12 06:54:26;;;;;;;19.05;10.00;;;;;;;13.74;78.24;100214.91;4942902;28;20110;-94
2022/10/12 06:56:54;;;;;;;18.35;9.40;;;;;;;13.77;78.16;100208.13;4927218;28;20031;-94
2022/10/12 06:59:21;;;;;;;16.42;9.00;;;;;;;13.81;77.47;100201.09;4928725;28;20062;-95
2022/10/12 07:01:48;;;;;;;28.40;14.20;;;;;;;13.80;77.20;100205.72;4943622;28;20026;-95
2022/10/12 07:09:29;;;;;;;13.60;9.18;;;;;;;14.03;76.16;100193.53;5002859;28;20046;-96
2022/10/12 07:14:36;;;;;;;17.80;10.07;;;;;;;14.20;75.76;100206.78;5351605;23;20058;-93
2022/10/12 07:31:58;;;;;;;19.02;8.35;;;;;;;14.35;73.84;100195.94;4990589;28;20053;-94
2022/10/12 07:34:29;;;;;;;15.70;9.27;;;;;;;14.45;73.67;100200.53;4998188;28;20062;-96
2022/10/12 07:36:57;;;;;;;12.90;8.63;;;;;;;14.38;73.64;100194.59;4978540;28;20034;-96
2022/10/12 07:39:23;;;;;;;14.55;9.50;;;;;;;14.43;73.78;100205.41;4915043;29;20031;-94
2022/10/12 07:44:38;;;;;;;16.67;8.57;;;;;;;14.60;72.91;100215.97;5177553;23;20074;-95
2022/10/12 07:47:03;;;;;;;14.63;8.75;;;;;;;14.66;72.94;100214.06;4946945;28;20057;-91
2022/10/12 07:49:49;;;;;;;15.68;9.10;;;;;;;14.64;72.62;100202.69;4944786;28;20022;-95
2022/10/12 07:52:26;;;;;;;;;;;;;;;;;;;;;
2022/10/12 07:54:55;;;;;;;12.30;7.80;;;;;;;14.95;70.74;100204.22;4949303;28;20027;-96
2022/10/12 07:57:37;;;;;;;30.38;19.17;;;;;;;15.22;71.66;100232.06;4951098;28;20027;-96
2022/10/12 08:00:31;;;;;;;19.40;9.70;;;;;;;14.99;70.78;100201.78;4942090;28;20038;-96
2022/10/12 08:03:06;;;;;;;17.70;11.77;;;;;;;15.13;70.04;100219.06;4908878;29;20127;-94
2022/10/12 08:05:36;;;;;;;15.85;8.20;;;;;;;15.17;69.96;100211.19;4935024;28;20034;-96
2022/10/12 08:08:07;;;;;;;13.35;8.45;;;;;;;15.23;69.55;100204.66;4968708;28;20026;-93
2022/10/12 08:10:38;;;;;;;19.55;11.73;;;;;;;15.43;68.91;100198.28;4946442;28;20035;-95
2022/10/12 08:13:03;;;;;;;14.88;8.25;;;;;;;15.59;67.75;100209.88;4981172;28;20034;-96
2022/10/12 08:15:29;;;;;;;14.82;7.35;;;;;;;15.57;67.51;100215.59;4943946;28;20086;-92
2022/10/12 08:17:57;;;;;;;11.43;6.43;;;;;;;15.62;67.63;100203.88;4951824;28;20038;-94
2022/10/12 08:20:33;;;;;;;30.90;19.20;;;;;;;15.75;68.11;100232.34;4948115;28;20026;-96
2022/10/12 08:22:59;;;;;;;22.73;14.90;;;;;;;15.91;66.71;100217.56;4970844;28;20018;-94
2022/10/12 08:25:24;;;;;;;13.98;7.70;;;;;;;16.08;66.63;100224.50;4944073;28;20018;-95
2022/10/12 08:27:53;;;;;;;13.27;7.38;;;;;;;15.84;66.02;100203.50;4941107;28;20053;-93
2022/10/12 08:30:25;;;;;;;13.85;7.93;;;;;;;15.85;66.58;100209.72;4932249;28;20029;-93
2022/10/12 08:32:54;;;;;;;12.00;8.60;;;;;;;15.92;66.56;100221.09;4930276;28;20030;-96
2022/10/12 08:35:20;;;;;;;16.23;9.15;;;;;;;15.92;66.55;100207.53;4930814;28;20034;-96
2022/10/12 08:37:45;;;;;;;15.55;8.77;;;;;;;16.00;66.43;100208.78;4945921;28;20039;-95
2022/10/12 08:40:29;;;;;;;12.70;7.80;;;;;;;16.18;64.37;100205.38;4928806;28;20061;-96
2022/10/12 08:42:58;;;;;;;10.85;6.30;;;;;;;16.39;64.61;100221.50;4944899;28;20573;-93
2022/10/12 08:45:46;;;;;;;12.68;7.65;;;;;;;16.18;65.17;100208.09;4928957;28;20046;-92
2022/10/12 08:48:45;;;;;;;22.38;15.30;;;;;;;16.07;64.85;100199.22;4931538;28;20027;-93
2022/10/12 08:51:18;;;;;;;14.20;7.55;;;;;;;16.13;64.66;100197.28;4946753;28;20132;-94
2022/10/12 08:53:51;;;;;;;10.32;6.47;;;;;;;16.44;62.83;100221.47;4928542;28;20023;-94
2022/10/12 08:56:17;;;;;;;21.45;11.98;;;;;;;16.33;62.47;100212.59;4942620;28;20046;-92
2022/10/12 08:58:43;;;;;;;10.82;6.93;;;;;;;16.32;62.35;100195.47;4942919;28;20085;-91
2022/10/12 09:01:37;;;;;;;12.27;6.55;;;;;;;16.67;62.46;100225.31;4944334;28;20027;-93
2022/10/12 09:04:21;;;;;;;16.48;7.43;;;;;;;16.66;61.89;100223.69;4958728;28;20031;-92
2022/10/12 09:07:15;;;;;;;12.27;6.78;;;;;;;16.60;61.67;100211.25;4949563;28;20105;-92
2022/10/12 09:10:30;;;;;;;13.32;7.07;;;;;;;16.72;60.99;100234.22;4935325;28;20030;-92
2022/10/12 09:13:29;;;;;;;11.98;7.32;;;;;;;16.88;61.68;100223.22;4893423;29;20092;-91
2022/10/12 09:16:05;;;;;;;12.00;7.43;;;;;;;16.80;61.65;100204.78;4956308;29;20090;-93
2022/10/12 09:18:34;;;;;;;10.88;6.63;;;;;;;16.93;61.72;100223.16;4955353;29;20050;-92
2022/10/12 09:21:01;;;;;;;11.73;6.90;;;;;;;16.76;61.48;100224.38;4955600;29;20031;-93
2022/10/12 09:23:32;;;;;;;14.02;7.35;;;;;;;16.85;61.80;100205.56;4954465;29;20024;-93
2022/10/12 09:26:17;;;;;;;14.32;6.90;;;;;;;16.76;61.01;100197.19;4954820;29;20027;-94
2022/10/12 09:29:28;;;;;;;11.63;7.13;;;;;;;17.16;61.12;100221.50;4954996;29;20136;-93
2022/10/12 09:32:28;;;;;;;12.80;7.85;;;;;;;17.36;60.78;100221.25;4934552;28;20038;-94
2022/10/12 09:34:53;;;;;;;11.15;7.32;;;;;;;17.35;59.91;100192.41;4968168;28;20102;-92
2022/10/12 09:37:25;;;;;;;11.55;6.82;;;;;;;17.48;58.44;100195.50;4932922;28;20075;-91
2022/10/12 09:39:50;;;;;;;15.15;7.28;;;;;;;17.51;57.97;100203.09;4948157;29;20106;-91
2022/10/12 09:42:16;;;;;;;9.60;6.80;;;;;;;17.48;58.27;100187.34;4908102;29;20046;-92
2022/10/12 09:44:48;;;;;;;11.50;6.72;;;;;;;17.61;58.41;100202.13;4938703;29;20533;-93
2022/10/12 09:47:20;;;;;;;11.20;6.93;;;;;;;17.58;58.36;100203.53;4939047;29;20379;-91
2022/10/12 09:49:59;;;;;;;13.15;6.93;;;;;;;17.55;57.72;100195.94;4938419;29;20679;-92
2022/10/12 09:52:37;;;;;;;12.23;6.55;;;;;;;17.70;57.06;100206.63;4929381;28;20035;-92
2022/10/12 09:55:24;;;;;;;13.80;7.50;;;;;;;17.73;56.60;100186.94;4974267;28;20029;-92
2022/10/12 09:58:01;;;;;;;10.70;6.60;;;;;;;17.79;57.66;100195.88;4933885;28;20033;-93
2022/10/12 10:00:31;;;;;;;15.02;7.95;;;;;;;17.74;56.68;100187.75;4923631;29;20031;-91
2022/10/12 10:02:57;;;;;;;11.27;7.63;;;;;;;17.96;56.37;100189.91;4951104;28;20061;-93
2022/10/12 10:05:33;;;;;;;17.05;8.57;;;;;;;18.01;56.56;100189.00;4921497;29;20027;-91
2022/10/12 10:08:31;;;;;;;13.48;6.57;;;;;;;18.29;56.21;100201.59;4938026;29;20449;-92
2022/10/12 10:10:57;;;;;;;12.93;7.05;;;;;;;18.21;56.97;100190.59;4934405;28;20043;-92
2022/10/12 10:13:25;;;;;;;29.48;22.00;;;;;;;18.36;56.50;100176.66;4922151;28;20473;-92
2022/10/12 10:16:03;;;;;;;100.78;57.53;;;;;;;18.32;56.30;100176.47;4916386;29;20027;-92
2022/10/12 10:18:42;;;;;;;15.50;8.10;;;;;;;18.50;55.31;100176.69;4912976;29;20394;-92
2022/10/12 10:21:11;;;;;;;17.92;8.27;;;;;;;18.46;55.39;100175.69;4937321;29;20051;-92
2022/10/12 10:23:51;;;;;;;11.10;7.13;;;;;;;18.38;55.30;100169.00;4925429;29;20034;-96
2022/10/12 10:26:18;;;;;;;25.75;14.82;;;;;;;18.43;55.97;100170.81;4942259;28;20521;-91
2022/10/12 10:28:48;;;;;;;9.43;6.32;;;;;;;18.41;55.72;100170.31;4926014;29;20050;-93
2022/10/12 10:31:20;;;;;;;12.30;7.07;;;;;;;18.44;56.05;100177.91;4906384;29;20066;-93
2022/10/12 10:34:01;;;;;;;9.73;6.22;;;;;;;18.55;55.08;100168.41;4938604;28;20118;-92
2022/10/12 10:37:19;;;;;;;13.48;7.22;;;;;;;18.73;54.57;100178.41;4927244;28;20432;-95
2022/10/12 10:39:49;;;;;;;8.70;6.32;;;;;;;18.80;54.40;100152.69;4922974;29;20102;-96
2022/10/12 10:42:18;;;;;;;10.70;6.75;;;;;;;18.63;55.20;100145.88;4923965;29;20500;-95
2022/10/12 10:44:51;;;;;;;16.95;11.27;;;;;;;18.69;55.84;100152.06;4921830;28;20055;-95
2022/10/12 10:47:17;;;;;;;17.30;10.27;;;;;;;18.81;54.84;100140.66;4928230;28;20027;-96
2022/10/12 10:49:59;;;;;;;13.25;8.02;;;;;;;18.86;54.51;100140.53;4926798;28;20117;-94
2022/10/12 10:52:35;;;;;;;14.52;7.50;;;;;;;18.92;54.23;100145.59;4937600;28;20035;-94
2022/10/12 10:55:10;;;;;;;17.70;8.15;;;;;;;19.18;53.86;100159.50;4946018;28;20477;-96
2022/10/12 10:57:50;;;;;;;13.52;6.60;;;;;;;18.96;53.97;100132.94;4976761;28;20030;-95
2022/10/12 11:00:20;;;;;;;12.60;7.03;;;;;;;19.00;54.47;100135.06;4946561;28;20500;-96
2022/10/12 11:02:55;;;;;;;20.15;9.00;;;;;;;19.29;53.35;100143.69;4950885;28;20042;-96
2022/10/12 11:05:31;;;;;;;9.02;6.35;;;;;;;19.34;52.73;100132.66;4945487;28;20018;-96
2022/10/12 11:08:27;;;;;;;11.68;7.03;;;;;;;19.33;52.55;100120.13;4948257;28;20033;-96
2022/10/12 11:11:03;;;;;;;10.13;6.95;;;;;;;19.43;52.37;100140.94;4941243;28;20042;-94
2022/10/12 11:13:38;;;;;;;9.30;6.20;;;;;;;19.15;52.51;100118.34;4961581;28;20412;-94
2022/10/12 11:16:41;;;;;;;13.25;7.13;;;;;;;19.46;51.62;100139.50;4946066;28;20031;-95
2022/10/12 11:19:21;;;;;;;14.98;7.25;;;;;;;19.46;52.31;100131.31;4966979;28;20400;-96
2022/10/12 11:22:30;;;;;;;12.90;7.57;;;;;;;19.12;53.51;100108.84;4980043;28;20088;-94
2022/10/12 11:25:04;;;;;;;12.35;7.28;;;;;;;19.12;52.77;100127.16;4962513;28;20026;-94
2022/10/12 11:27:37;;;;;;;15.65;6.53;;;;;;;18.96;52.50;100100.19;4972653;28;20109;-92
2022/10/12 11:30:14;;;;;;;12.68;7.30;;;;;;;18.85;54.62;100123.38;4927856;28;20041;-92
2022/10/12 11:32:52;;;;;;;9.48;6.25;;;;;;;18.81;53.62;100122.38;4945746;28;20022;-90
2022/10/12 11:35:50;;;;;;;11.40;6.55;;;;;;;18.90;53.33;100123.25;4959447;28;20034;-91
2022/10/12 11:38:30;;;;;;;15.38;6.78;;;;;;;18.95;52.36;100092.34;4967964;28;20094;-90
2022/10/12 11:41:19;;;;;;;12.32;7.30;;;;;;;19.32;51.78;100117.69;4946462;28;20137;-91
2022/10/12 11:43:51;;;;;;;11.20;7.00;;;;;;;19.35;51.97;100115.16;4962684;28;20116;-91
2022/10/12 11:46:33;;;;;;;8.60;6.65;;;;;;;19.12;53.30;100114.31;4962863;28;20023;-90
2022/10/12 11:49:01;;;;;;;11.55;6.72;;;;;;;19.01;52.26;100117.56;4947486;28;20022;-90
2022/10/12 11:51:33;;;;;;;11.68;7.55;;;;;;;19.03;52.33;100104.44;4943984;28;20122;-93
2022/10/12 11:54:26;;;;;;;13.52;6.90;;;;;;;19.18;52.07;100099.44;4944570;28;20043;-93
2022/10/12 11:56:55;;;;;;;9.77;7.05;;;;;;;19.04;52.98;100095.94;4943708;28;20037;-91
2022/10/12 11:59:38;;;;;;;14.43;7.88;;;;;;;19.30;52.66;100117.19;4933082;28;20037;-90
2022/10/12 12:02:21;;;;;;;11.43;6.18;;;;;;;19.37;51.63;100118.38;4950469;28;20029;-89
2022/10/12 12:04:49;;;;;;;11.18;6.20;;;;;;;19.38;51.16;100094.59;4951670;28;20509;-91
2022/10/12 12:07:47;;;;;;;10.38;5.93;;;;;;;19.52;51.14;100109.00;4958365;28;20031;-91
2022/10/12 12:10:52;;;;;;;13.40;7.72;;;;;;;19.28;51.44;100075.72;4957515;28;20022;-95